createdAt,value
2017-10-21T10:30:12.018Z,1006.00
2017-10-21T10:31:11.642Z,1006.02
2017-10-21T10:32:14.320Z,1005.98
2017-10-21T10:33:11.834Z,1005.95
2017-10-21T10:34:11.617Z,1005.91
2017-10-21T10:35:11.596Z,1005.90
2017-10-21T10:36:11.772Z,1005.84
2017-10-21T10:37:11.558Z,1005.84
2017-10-21T10:38:11.526Z,1005.91
2017-10-21T10:39:11.702Z,1005.90
2017-10-21T10:40:11.499Z,1005.94
2017-10-21T10:41:11.462Z,1005.93
2017-10-21T10:42:11.627Z,1006.00
2017-10-21T10:43:11.448Z,1005.95
2017-10-21T10:44:11.406Z,1005.93
2017-10-21T10:45:55.965Z,1005.98
2017-10-21T10:46:55.857Z,1005.95
2017-10-21T10:48:49.943Z,1006.02
2017-10-21T10:49:49.936Z,1005.99
2017-10-21T10:51:43.054Z,1006.00
2017-10-21T10:52:42.971Z,1006.01
2017-10-21T10:54:37.111Z,1006.07
2017-10-21T10:55:37.012Z,1006.09
2017-10-21T10:56:37.074Z,1006.09
2017-10-21T10:57:37.025Z,1006.02
2017-10-21T10:58:37.403Z,1006.00
2017-10-21T10:59:37.038Z,1005.96
2017-10-21T11:00:37.092Z,1005.93
2017-10-21T11:01:36.951Z,1005.89
2017-10-21T11:02:37.266Z,1005.89
2017-10-21T11:03:37.089Z,1005.83
2017-10-21T11:04:36.942Z,1005.82
2017-10-21T11:05:37.494Z,1005.75
2017-10-21T11:06:36.815Z,1005.74
2017-10-21T11:07:41.962Z,1005.73
2017-10-21T11:08:40.700Z,1005.73
2017-10-21T11:09:37.563Z,1005.73
2017-10-21T11:10:42.362Z,1005.70
2017-10-21T11:11:39.076Z,1005.73
2017-10-21T11:12:39.362Z,1005.72
2017-10-21T11:13:38.518Z,1005.74
2017-10-21T11:14:37.311Z,1005.68
2017-10-21T11:15:37.763Z,1005.69
2017-10-21T11:16:36.764Z,1005.67
2017-10-21T11:17:36.699Z,1005.64
2017-10-21T11:18:36.753Z,1005.65
2017-10-21T11:19:49.377Z,1005.60
2017-10-21T11:20:39.192Z,1005.55
2017-10-21T11:21:37.455Z,1005.53
2017-10-21T11:22:36.677Z,1005.52
2017-10-21T11:23:41.427Z,1005.48
2017-10-21T11:24:41.672Z,1005.51
2017-10-21T11:25:37.318Z,1005.50
2017-10-21T11:26:43.844Z,1005.51
2017-10-21T11:27:38.987Z,1005.50
2017-10-21T11:28:43.392Z,1005.54
2017-10-21T11:29:38.497Z,1005.47
2017-10-21T11:30:39.227Z,1005.51
2017-10-21T11:31:44.169Z,1005.44
2017-10-21T11:32:38.629Z,1005.43
2017-10-21T11:33:39.031Z,1005.39
2017-10-21T11:34:37.083Z,1005.37
2017-10-21T11:35:39.572Z,1005.38
2017-10-21T11:36:41.200Z,1005.37
2017-10-21T11:37:38.189Z,1005.33
2017-10-21T11:38:39.295Z,1005.36
2017-10-21T11:39:38.718Z,1005.34
2017-10-21T11:41:36.123Z,1005.35
2017-10-21T11:42:36.202Z,1005.38
2017-10-21T11:43:36.097Z,1005.40
2017-10-21T11:44:36.061Z,1005.37
2017-10-21T11:45:36.071Z,1005.39
2017-10-21T11:46:36.058Z,1005.40
2017-10-21T11:47:36.049Z,1005.38
2017-10-21T11:48:36.001Z,1005.35
2017-10-21T11:49:36.002Z,1005.32
2017-10-21T11:50:35.938Z,1005.30
2017-10-21T11:51:35.939Z,1005.33
2017-10-21T11:52:35.897Z,1005.37
2017-10-21T11:53:35.897Z,1005.37
2017-10-21T11:54:35.922Z,1005.44
2017-10-21T11:55:35.890Z,1005.39
2017-10-21T11:56:35.869Z,1005.39
2017-10-21T11:57:35.810Z,1005.40
2017-10-21T11:58:35.803Z,1005.38
